sensor_id;sensor_type;location;lat;lon;timestamp;pressure;altitude;pressure_sealevel;temperature;humidity
51876;BME280;34054;52.100;5.116;2022-09-27T00:00:04;99495.03;;;12.72;93.00
51876;BME280;34054;52.100;5.116;2022-09-27T00:00:38;99491.00;;;12.69;93.05
51876;BME280;34054;52.100;5.116;2022-09-27T00:01:13;99501.41;;;12.67;92.86
51876;BME280;34054;52.100;5.116;2022-09-27T00:01:46;99508.16;;;12.70;92.99
51876;BME280;34054;52.100;5.116;2022-09-27T00:02:18;99504.31;;;12.71;92.95
51876;BME280;34054;52.100;5.116;2022-09-27T00:02:50;99509.75;;;12.71;93.11
51876;BME280;34054;52.100;5.116;2022-09-27T00:03:22;99500.81;;;12.70;93.21
51876;BME280;34054;52.100;5.116;2022-09-27T00:03:54;99505.94;;;12.72;92.96
51876;BME280;34054;52.100;5.116;2022-09-27T00:04:26;99504.13;;;12.67;93.14
51876;BME280;34054;52.100;5.116;2022-09-27T00:04:58;99515.41;;;12.75;93.13
51876;BME280;34054;52.100;5.116;2022-09-27T00:05:32;99518.66;;;12.77;93.25
51876;BME280;34054;52.100;5.116;2022-09-27T00:06:06;99518.84;;;12.80;93.12
51876;BME280;34054;52.100;5.116;2022-09-27T00:06:39;99521.56;;;12.80;93.14
51876;BME280;34054;52.100;5.116;2022-09-27T00:07:10;99522.06;;;12.82;93.01
51876;BME280;34054;52.100;5.116;2022-09-27T00:07:43;99514.19;;;12.81;93.17
51876;BME280;34054;52.100;5.116;2022-09-27T00:08:15;99519.63;;;12.81;92.97
51876;BME280;34054;52.100;5.116;2022-09-27T00:08:47;99520.16;;;12.83;92.71
51876;BME280;34054;52.100;5.116;2022-09-27T00:09:19;99518.25;;;12.83;92.49
51876;BME280;34054;52.100;5.116;2022-09-27T00:09:51;99520.34;;;12.72;92.31
51876;BME280;34054;52.100;5.116;2022-09-27T00:10:23;99522.09;;;12.68;92.60
51876;BME280;34054;52.100;5.116;2022-09-27T00:10:58;99522.09;;;12.68;92.68
51876;BME280;34054;52.100;5.116;2022-09-27T00:11:33;99509.16;;;12.60;92.94
51876;BME280;34054;52.100;5.116;2022-09-27T00:12:07;99517.44;;;12.69;92.96
51876;BME280;34054;52.100;5.116;2022-09-27T00:12:40;99516.91;;;12.67;92.86
51876;BME280;34054;52.100;5.116;2022-09-27T00:13:12;99517.16;;;12.70;92.80
51876;BME280;34054;52.100;5.116;2022-09-27T00:13:43;99519.88;;;12.70;93.02
51876;BME280;34054;52.100;5.116;2022-09-27T00:14:16;99520.47;;;12.67;93.07
51876;BME280;34054;52.100;5.116;2022-09-27T00:14:48;99511.00;;;12.65;92.87
51876;BME280;34054;52.100;5.116;2022-09-27T00:15:20;99506.03;;;12.67;93.14
51876;BME280;34054;52.100;5.116;2022-09-27T00:15:55;99509.44;;;12.72;92.98
51876;BME280;34054;52.100;5.116;2022-09-27T00:16:29;99514.91;;;12.72;92.92
51876;BME280;34054;52.100;5.116;2022-09-27T00:17:03;99512.81;;;12.69;92.84
51876;BME280;34054;52.100;5.116;2022-09-27T00:17:36;99514.09;;;12.72;93.00
51876;BME280;34054;52.100;5.116;2022-09-27T00:18:08;99514.41;;;12.70;93.13
51876;BME280;34054;52.100;5.116;2022-09-27T00:18:40;99517.63;;;12.72;92.92
51876;BME280;34054;52.100;5.116;2022-09-27T00:19:14;99503.94;;;12.64;92.89
51876;BME280;34054;52.100;5.116;2022-09-27T00:19:47;99509.38;;;12.64;92.92
51876;BME280;34054;52.100;5.116;2022-09-27T00:20:20;99513.28;;;12.71;93.02
51876;BME280;34054;52.100;5.116;2022-09-27T00:20:53;99507.34;;;12.69;93.13
51876;BME280;34054;52.100;5.116;2022-09-27T00:21:24;99496.84;;;12.63;93.22
51876;BME280;34054;52.100;5.116;2022-09-27T00:21:57;99506.84;;;12.67;92.36
51876;BME280;34054;52.100;5.116;2022-09-27T00:22:31;99509.06;;;12.65;92.32
51876;BME280;34054;52.100;5.116;2022-09-27T00:23:03;99509.38;;;12.64;92.42
51876;BME280;34054;52.100;5.116;2022-09-27T00:23:36;99506.13;;;12.62;92.62
51876;BME280;34054;52.100;5.116;2022-09-27T00:24:10;99509.06;;;12.65;92.55
51876;BME280;34054;52.100;5.116;2022-09-27T00:24:44;99505.22;;;12.66;92.62
51876;BME280;34054;52.100;5.116;2022-09-27T00:25:16;99495.44;;;12.65;92.53
51876;BME280;34054;52.100;5.116;2022-09-27T00:25:55;99508.53;;;12.63;92.55
51876;BME280;34054;52.100;5.116;2022-09-27T00:26:28;99500.19;;;12.60;92.32
51876;BME280;34054;52.100;5.116;2022-09-27T00:27:00;99504.00;;;12.59;92.32
51876;BME280;34054;52.100;5.116;2022-09-27T00:27:32;99509.97;;;12.61;92.16
51876;BME280;34054;52.100;5.116;2022-09-27T00:28:05;99506.25;;;12.56;92.27
51876;BME280;34054;52.100;5.116;2022-09-27T00:28:37;99513.59;;;12.56;92.31
51876;BME280;34054;52.100;5.116;2022-09-27T00:29:09;99511.50;;;12.53;92.34
51876;BME280;34054;52.100;5.116;2022-09-27T00:29:42;99509.25;;;12.55;92.58
51876;BME280;34054;52.100;5.116;2022-09-27T00:30:15;99511.97;;;12.55;92.47
51876;BME280;34054;52.100;5.116;2022-09-27T00:30:46;99511.50;;;12.53;92.43
51876;BME280;34054;52.100;5.116;2022-09-27T00:31:22;99513.09;;;12.54;92.46
51876;BME280;34054;52.100;5.116;2022-09-27T00:31:55;99512.88;;;12.50;92.57
51876;BME280;34054;52.100;5.116;2022-09-27T00:32:27;99514.91;;;12.59;92.42
51876;BME280;34054;52.100;5.116;2022-09-27T00:32:59;99518.25;;;12.55;92.44
51876;BME280;34054;52.100;5.116;2022-09-27T00:33:30;99515.13;;;12.62;92.26
51876;BME280;34054;52.100;5.116;2022-09-27T00:34:03;99509.97;;;12.61;92.13
51876;BME280;34054;52.100;5.116;2022-09-27T00:34:37;99506.44;;;12.60;92.13
51876;BME280;34054;52.100;5.116;2022-09-27T00:35:09;99511.69;;;12.56;92.04
51876;BME280;34054;52.100;5.116;2022-09-27T00:35:41;99504.91;;;12.54;92.23
51876;BME280;34054;52.100;5.116;2022-09-27T00:36:14;99503.81;;;12.55;91.98
51876;BME280;34054;52.100;5.116;2022-09-27T00:36:49;99505.94;;;12.58;92.10
51876;BME280;34054;52.100;5.116;2022-09-27T00:37:22;99503.31;;;12.53;91.93
51876;BME280;34054;52.100;5.116;2022-09-27T00:37:53;99507.56;;;12.59;91.96
51876;BME280;34054;52.100;5.116;2022-09-27T00:38:26;99500.19;;;12.60;91.73
51876;BME280;34054;52.100;5.116;2022-09-27T00:38:58;99497.78;;;12.58;91.27
51876;BME280;34054;52.100;5.116;2022-09-27T00:39:32;99498.28;;;12.60;91.08
51876;BME280;34054;52.100;5.116;2022-09-27T00:40:05;99494.13;;;12.49;90.49
51876;BME280;34054;52.100;5.116;2022-09-27T00:40:38;99505.75;;;12.54;90.09
51876;BME280;34054;52.100;5.116;2022-09-27T00:41:13;99511.50;;;12.53;90.26
51876;BME280;34054;52.100;5.116;2022-09-27T00:41:47;99500.09;;;12.51;90.63
51876;BME280;34054;52.100;5.116;2022-09-27T00:42:19;99509.97;;;12.47;90.77
51876;BME280;34054;52.100;5.116;2022-09-27T00:42:50;99513.19;;;12.49;90.46
51876;BME280;34054;52.100;5.116;2022-09-27T00:43:23;99508.34;;;12.46;90.81
51876;BME280;34054;52.100;5.116;2022-09-27T00:43:57;99511.69;;;12.43;91.06
51876;BME280;34054;52.100;5.116;2022-09-27T00:44:58;99508.06;;;12.47;91.15
51876;BME280;34054;52.100;5.116;2022-09-27T00:45:42;99500.47;;;12.44;91.44
51876;BME280;34054;52.100;5.116;2022-09-27T00:46:22;99505.13;;;12.44;91.36
51876;BME280;34054;52.100;5.116;2022-09-27T00:47:00;99505.13;;;12.44;91.54
51876;BME280;34054;52.100;5.116;2022-09-27T00:47:44;99514.09;;;12.44;91.47
51876;BME280;34054;52.100;5.116;2022-09-27T00:48:24;99505.41;;;12.42;91.54
51876;BME280;34054;52.100;5.116;2022-09-27T00:49:05;99510.59;;;12.44;91.64
51876;BME280;34054;52.100;5.116;2022-09-27T00:49:46;99510.47;;;12.49;91.30
51876;BME280;34054;52.100;5.116;2022-09-27T00:50:25;99509.97;;;12.47;91.25
51876;BME280;34054;52.100;5.116;2022-09-27T00:51:02;99511.56;;;12.48;91.37
51876;BME280;34054;52.100;5.116;2022-09-27T00:51:41;99513.78;;;12.46;91.42
51876;BME280;34054;52.100;5.116;2022-09-27T00:52:21;99507.84;;;12.44;91.43
51876;BME280;34054;52.100;5.116;2022-09-27T00:53:08;99505.41;;;12.42;91.53
51876;BME280;34054;52.100;5.116;2022-09-27T00:53:48;99511.69;;;12.43;91.38
51876;BME280;34054;52.100;5.116;2022-09-27T00:54:25;99505.84;;;12.35;91.44
51876;BME280;34054;52.100;5.116;2022-09-27T00:55:05;99502.50;;;12.38;91.47
51876;BME280;34054;52.100;5.116;2022-09-27T00:55:56;99505.22;;;12.38;91.41
51876;BME280;34054;52.100;5.116;2022-09-27T00:56:32;99502.69;;;12.42;91.20
51876;BME280;34054;52.100;5.116;2022-09-27T00:57:06;99512.69;;;12.47;90.88
51876;BME280;34054;52.100;5.116;2022-09-27T00:57:40;99511.69;;;12.43;90.79
51876;BME280;34054;52.100;5.116;2022-09-27T00:58:17;99520.44;;;12.39;90.86
51876;BME280;34054;52.100;5.116;2022-09-27T00:58:57;99514.00;;;12.35;90.84
51876;BME280;34054;52.100;5.116;2022-09-27T00:59:34;99524.38;;;12.33;91.19
51876;BME280;34054;52.100;5.116;2022-09-27T01:00:12;99524.69;;;12.32;91.15
51876;BME280;34054;52.100;5.116;2022-09-27T01:00:50;99516.31;;;12.28;91.32
51876;BME280;34054;52.100;5.116;2022-09-27T01:01:24;99522.44;;;12.34;91.31
51876;BME280;34054;52.100;5.116;2022-09-27T01:01:56;99520.56;;;12.34;91.40
51876;BME280;34054;52.100;5.116;2022-09-27T01:02:28;99512.38;;;12.34;91.31
51876;BME280;34054;52.100;5.116;2022-09-27T01:03:05;99531.97;;;12.36;91.02
51876;BME280;34054;52.100;5.116;2022-09-27T01:03:43;99520.84;;;12.33;91.26
51876;BME280;34054;52.100;5.116;2022-09-27T01:04:23;99525.50;;;12.32;91.13
51876;BME280;34054;52.100;5.116;2022-09-27T01:04:57;99532.44;;;12.38;91.18
51876;BME280;34054;52.100;5.116;2022-09-27T01:05:29;99529.50;;;12.35;91.08
51876;BME280;34054;52.100;5.116;2022-09-27T01:06:02;99537.88;;;12.38;91.12
51876;BME280;34054;52.100;5.116;2022-09-27T01:06:36;99532.75;;;12.37;91.13
51876;BME280;34054;52.100;5.116;2022-09-27T01:07:10;99533.84;;;12.36;91.13
51876;BME280;34054;52.100;5.116;2022-09-27T01:07:42;99523.78;;;12.36;91.26
51876;BME280;34054;52.100;5.116;2022-09-27T01:08:14;99532.16;;;12.40;91.20
51876;BME280;34054;52.100;5.116;2022-09-27T01:08:46;99529.00;;;12.33;91.27
51876;BME280;34054;52.100;5.116;2022-09-27T01:09:17;99535.38;;;12.42;91.29
51876;BME280;34054;52.100;5.116;2022-09-27T01:09:51;99530.53;;;12.39;91.16
51876;BME280;34054;52.100;5.116;2022-09-27T01:10:23;99531.84;;;12.41;90.70
51876;BME280;34054;52.100;5.116;2022-09-27T01:11:10;99526.69;;;12.26;90.94
51876;BME280;34054;52.100;5.116;2022-09-27T01:11:56;99530.34;;;12.35;91.16
51876;BME280;34054;52.100;5.116;2022-09-27T01:12:44;99527.91;;;12.34;91.38
51876;BME280;34054;52.100;5.116;2022-09-27T01:13:30;99535.16;;;12.38;91.27
51876;BME280;34054;52.100;5.116;2022-09-27T01:14:38;99528.41;;;12.36;91.39
51876;BME280;34054;52.100;5.116;2022-09-27T01:15:23;99527.09;;;12.33;91.71
51876;BME280;34054;52.100;5.116;2022-09-27T01:16:08;99520.84;;;12.33;91.60
51876;BME280;34054;52.100;5.116;2022-09-27T01:16:57;99509.06;;;12.23;91.61
51876;BME280;34054;52.100;5.116;2022-09-27T01:17:46;99530.34;;;12.35;91.37
51876;BME280;34054;52.100;5.116;2022-09-27T01:18:30;99517.72;;;12.39;90.99
51876;BME280;34054;52.100;5.116;2022-09-27T01:19:19;99520.84;;;12.33;90.64
51876;BME280;34054;52.100;5.116;2022-09-27T01:20:28;99523.84;;;12.17;90.58
51876;BME280;34054;52.100;5.116;2022-09-27T01:21:44;99526.97;;;12.11;91.71
51876;BME280;34054;52.100;5.116;2022-09-27T01:22:29;99527.97;;;12.15;91.79
51876;BME280;34054;52.100;5.116;2022-09-27T01:23:28;99529.28;;;12.17;91.81
51876;BME280;34054;52.100;5.116;2022-09-27T01:24:30;99527.88;;;12.20;92.09
51876;BME280;34054;52.100;5.116;2022-09-27T01:25:40;99516.19;;;12.19;91.94
51876;BME280;34054;52.100;5.116;2022-09-27T01:26:42;99529.22;;;12.22;91.80
51876;BME280;34054;52.100;5.116;2022-09-27T01:27:55;99520.44;;;12.25;91.98
51876;BME280;34054;52.100;5.116;2022-09-27T01:28:57;99533.31;;;12.20;92.01
51876;BME280;34054;52.100;5.116;2022-09-27T01:29:50;99526.28;;;12.19;92.02
51876;BME280;34054;52.100;5.116;2022-09-27T01:30:42;99526.50;;;12.22;92.05
51876;BME280;34054;52.100;5.116;2022-09-27T01:31:23;99529.50;;;12.21;92.06
51876;BME280;34054;52.100;5.116;2022-09-27T01:32:04;99529.22;;;12.22;91.82
51876;BME280;34054;52.100;5.116;2022-09-27T01:32:47;99524.34;;;12.19;91.80
51876;BME280;34054;52.100;5.116;2022-09-27T01:33:41;99530.13;;;12.18;91.79
51876;BME280;34054;52.100;5.116;2022-09-27T01:34:22;99533.13;;;12.16;91.93
51876;BME280;34054;52.100;5.116;2022-09-27T01:35:02;99533.13;;;12.16;91.82
51876;BME280;34054;52.100;5.116;2022-09-27T01:35:53;99526.56;;;12.17;91.89
51876;BME280;34054;52.100;5.116;2022-09-27T01:36:42;99531.13;;;12.22;91.75
51876;BME280;34054;52.100;5.116;2022-09-27T01:37:28;99534.94;;;12.21;91.49
51876;BME280;34054;52.100;5.116;2022-09-27T01:38:14;99532.53;;;12.19;91.11
51876;BME280;34054;52.100;5.116;2022-09-27T01:39:05;99528.56;;;12.12;91.42
51876;BME280;34054;52.100;5.116;2022-09-27T01:39:49;99526.28;;;12.19;90.76
51876;BME280;34054;52.100;5.116;2022-09-27T01:40:32;99530.13;;;12.18;90.55
51876;BME280;34054;52.100;5.116;2022-09-27T01:41:14;99528.66;;;12.06;90.15
51876;BME280;34054;52.100;5.116;2022-09-27T01:42:03;99523.81;;;12.03;89.85
51876;BME280;34054;52.100;5.116;2022-09-27T01:42:46;99524.31;;;12.05;89.60
51876;BME280;34054;52.100;5.116;2022-09-27T01:43:23;99527.66;;;12.02;89.08
51876;BME280;34054;52.100;5.116;2022-09-27T01:44:03;99524.47;;;11.95;88.85
51876;BME280;34054;52.100;5.116;2022-09-27T01:44:45;99529.50;;;11.88;89.37
51876;BME280;34054;52.100;5.116;2022-09-27T01:45:24;99525.16;;;11.87;89.97
51876;BME280;34054;52.100;5.116;2022-09-27T01:46:04;99527.88;;;11.87;90.31
51876;BME280;34054;52.100;5.116;2022-09-27T01:46:44;99522.63;;;11.90;89.88
51876;BME280;34054;52.100;5.116;2022-09-27T01:47:22;99526.69;;;11.93;89.64
51876;BME280;34054;52.100;5.116;2022-09-27T01:48:01;99525.47;;;11.85;90.05
51876;BME280;34054;52.100;5.116;2022-09-27T01:48:41;99527.06;;;11.86;90.31
51876;BME280;34054;52.100;5.116;2022-09-27T01:49:22;99527.88;;;11.87;90.53
51876;BME280;34054;52.100;5.116;2022-09-27T01:50:02;99520.81;;;11.86;90.71
51876;BME280;34054;52.100;5.116;2022-09-27T01:50:41;99527.59;;;11.88;90.73
51876;BME280;34054;52.100;5.116;2022-09-27T01:51:20;99531.41;;;11.87;90.71
51876;BME280;34054;52.100;5.116;2022-09-27T01:51:58;99524.47;;;11.95;90.41
51876;BME280;34054;52.100;5.116;2022-09-27T01:52:37;99524.78;;;11.93;90.29
51876;BME280;34054;52.100;5.116;2022-09-27T01:53:17;99520.94;;;11.94;90.45
51876;BME280;34054;52.100;5.116;2022-09-27T01:53:52;99519.63;;;11.92;90.16
51876;BME280;34054;52.100;5.116;2022-09-27T01:54:32;99524.56;;;11.90;90.57
51876;BME280;34054;52.100;5.116;2022-09-27T01:55:09;99528.97;;;11.86;90.63
51876;BME280;34054;52.100;5.116;2022-09-27T01:55:47;99526.94;;;11.77;90.63
51876;BME280;34054;52.100;5.116;2022-09-27T01:56:26;99526.25;;;11.86;90.87
51876;BME280;34054;52.100;5.116;2022-09-27T01:57:04;99521.94;;;11.85;90.89
51876;BME280;34054;52.100;5.116;2022-09-27T01:57:45;99525.16;;;11.87;90.74
51876;BME280;34054;52.100;5.116;2022-09-27T01:58:28;99522.53;;;11.82;90.79
51876;BME280;34054;52.100;5.116;2022-09-27T01:59:10;99519.22;;;11.85;90.94
51876;BME280;34054;52.100;5.116;2022-09-27T01:59:49;99520.00;;;11.85;90.94
51876;BME280;34054;52.100;5.116;2022-09-27T02:00:26;99526.88;;;11.83;90.94
51876;BME280;34054;52.100;5.116;2022-09-27T02:00:59;99530.59;;;11.87;90.98
51876;BME280;34054;52.100;5.116;2022-09-27T02:01:37;99531.63;;;11.91;90.86
51876;BME280;34054;52.100;5.116;2022-09-27T02:02:11;99531.09;;;11.89;90.72
51876;BME280;34054;52.100;5.116;2022-09-27T02:02:49;99519.91;;;11.90;90.75
51876;BME280;34054;52.100;5.116;2022-09-27T02:03:30;99521.31;;;11.88;90.68
51876;BME280;34054;52.100;5.116;2022-09-27T02:04:08;99523.03;;;11.84;90.66
51876;BME280;34054;52.100;5.116;2022-09-27T02:04:47;99524.94;;;11.83;90.63
51876;BME280;34054;52.100;5.116;2022-09-27T02:05:29;99526.56;;;11.84;90.73
51876;BME280;34054;52.100;5.116;2022-09-27T02:06:09;99518.69;;;11.83;90.78
51876;BME280;34054;52.100;5.116;2022-09-27T02:06:47;99526.75;;;11.88;90.61
51876;BME280;34054;52.100;5.116;2022-09-27T02:07:28;99515.25;;;11.77;90.54
51876;BME280;34054;52.100;5.116;2022-09-27T02:08:12;99525.25;;;11.82;90.70
51876;BME280;34054;52.100;5.116;2022-09-27T02:08:52;99526.25;;;11.86;90.76
51876;BME280;34054;52.100;5.116;2022-09-27T02:09:29;99528.97;;;11.86;90.74
51876;BME280;34054;52.100;5.116;2022-09-27T02:10:08;99519.28;;;11.79;90.67
51876;BME280;34054;52.100;5.116;2022-09-27T02:10:48;99526.25;;;11.86;90.71
51876;BME280;34054;52.100;5.116;2022-09-27T02:11:26;99518.91;;;11.86;90.82
51876;BME280;34054;52.100;5.116;2022-09-27T02:12:01;99529.22;;;11.89;90.75
51876;BME280;34054;52.100;5.116;2022-09-27T02:12:39;99531.94;;;11.89;90.70
51876;BME280;34054;52.100;5.116;2022-09-27T02:13:20;99534.41;;;11.86;90.84
51876;BME280;34054;52.100;5.116;2022-09-27T02:13:57;99528.19;;;11.85;90.84
51876;BME280;34054;52.100;5.116;2022-09-27T02:14:39;99530.59;;;11.87;90.77
51876;BME280;34054;52.100;5.116;2022-09-27T02:15:14;99527.59;;;11.88;90.68
51876;BME280;34054;52.100;5.116;2022-09-27T02:15:51;99524.78;;;11.93;90.79
51876;BME280;34054;52.100;5.116;2022-09-27T02:16:37;99526.75;;;11.88;90.57
51876;BME280;34054;52.100;5.116;2022-09-27T02:17:22;99529.28;;;11.84;90.83
51876;BME280;34054;52.100;5.116;2022-09-27T02:18:10;99544.72;;;11.89;90.85
51876;BME280;34054;52.100;5.116;2022-09-27T02:18:58;99537.59;;;11.93;90.60
51876;BME280;34054;52.100;5.116;2022-09-27T02:19:45;99526.66;;;11.79;89.52
51876;BME280;34054;52.100;5.116;2022-09-27T02:20:29;99531.00;;;11.61;89.30
51876;BME280;34054;52.100;5.116;2022-09-27T02:21:10;99529.47;;;11.55;89.47
51876;BME280;34054;52.100;5.116;2022-09-27T02:22:05;99529.78;;;11.53;89.84
51876;BME280;34054;52.100;5.116;2022-09-27T02:22:49;99528.16;;;11.52;90.37
51876;BME280;34054;52.100;5.116;2022-09-27T02:23:33;99526.41;;;11.42;90.60
51876;BME280;34054;52.100;5.116;2022-09-27T02:24:12;99526.97;;;11.39;90.95
51876;BME280;34054;52.100;5.116;2022-09-27T02:24:57;99526.91;;;11.44;91.17
51876;BME280;34054;52.100;5.116;2022-09-27T02:25:37;99533.00;;;11.36;91.01
51876;BME280;34054;52.100;5.116;2022-09-27T02:26:16;99533.44;;;11.24;91.04
51876;BME280;34054;52.100;5.116;2022-09-27T02:27:00;99527.47;;;11.22;91.55
51876;BME280;34054;52.100;5.116;2022-09-27T02:27:50;99510.69;;;11.20;91.61
51876;BME280;34054;52.100;5.116;2022-09-27T02:28:30;99516.56;;;11.27;91.77
51876;BME280;34054;52.100;5.116;2022-09-27T02:29:08;99523.75;;;11.37;92.16
51876;BME280;34054;52.100;5.116;2022-09-27T02:29:47;99523.84;;;11.32;91.28
51876;BME280;34054;52.100;5.116;2022-09-27T02:30:22;99524.94;;;11.31;91.22
51876;BME280;34054;52.100;5.116;2022-09-27T02:30:54;99528.75;;;11.30;91.18
51876;BME280;34054;52.100;5.116;2022-09-27T02:31:27;99522.28;;;11.26;91.15
51876;BME280;34054;52.100;5.116;2022-09-27T02:32:00;99515.50;;;11.23;91.18
51876;BME280;34054;52.100;5.116;2022-09-27T02:32:32;99526.75;;;11.36;91.42
51876;BME280;34054;52.100;5.116;2022-09-27T02:33:04;99522.13;;;11.36;91.34
51876;BME280;34054;52.100;5.116;2022-09-27T02:33:40;99524.25;;;11.39;91.41
51876;BME280;34054;52.100;5.116;2022-09-27T02:34:19;99522.88;;;11.42;91.58
51876;BME280;34054;52.100;5.116;2022-09-27T02:34:54;99516.53;;;11.46;91.65
51876;BME280;34054;52.100;5.116;2022-09-27T02:35:32;99522.50;;;11.49;91.54
51876;BME280;34054;52.100;5.116;2022-09-27T02:36:05;99522.41;;;11.54;91.70
51876;BME280;34054;52.100;5.116;2022-09-27T02:36:39;99514.25;;;11.54;91.51
51876;BME280;34054;52.100;5.116;2022-09-27T02:37:12;99508.47;;;11.41;90.26
51876;BME280;34054;52.100;5.116;2022-09-27T02:37:44;99499.38;;;11.13;90.17
51876;BME280;34054;52.100;5.116;2022-09-27T02:38:17;99500.84;;;11.05;90.33
51876;BME280;34054;52.100;5.116;2022-09-27T02:38:51;99509.41;;;10.93;91.31
51876;BME280;34054;52.100;5.116;2022-09-27T02:39:22;99511.53;;;10.96;91.33
51876;BME280;34054;52.100;5.116;2022-09-27T02:39:54;99513.09;;;11.03;91.49
51876;BME280;34054;52.100;5.116;2022-09-27T02:40:30;99506.25;;;11.05;91.64
51876;BME280;34054;52.100;5.116;2022-09-27T02:41:10;99521.38;;;11.11;91.59
51876;BME280;34054;52.100;5.116;2022-09-27T02:41:43;99505.09;;;11.11;91.35
51876;BME280;34054;52.100;5.116;2022-09-27T02:42:16;99510.28;;;11.08;90.94
51876;BME280;34054;52.100;5.116;2022-09-27T02:42:47;99507.88;;;11.06;90.63
51876;BME280;34054;52.100;5.116;2022-09-27T02:43:20;99515.50;;;11.04;90.49
51876;BME280;34054;52.100;5.116;2022-09-27T02:44:02;99516.59;;;11.03;90.42
51876;BME280;34054;52.100;5.116;2022-09-27T02:44:36;99507.72;;;10.97;90.48
51876;BME280;34054;52.100;5.116;2022-09-27T02:45:10;99514.25;;;10.96;90.75
51876;BME280;34054;52.100;5.116;2022-09-27T02:45:53;99507.56;;;10.89;90.93
51876;BME280;34054;52.100;5.116;2022-09-27T02:46:49;99515.59;;;10.99;90.91
51876;BME280;34054;52.100;5.116;2022-09-27T02:47:58;99525.28;;;11.05;91.42
51876;BME280;34054;52.100;5.116;2022-09-27T02:48:45;99518.66;;;11.11;91.44
51876;BME280;34054;52.100;5.116;2022-09-27T02:49:42;99509.72;;;11.11;91.28
51876;BME280;34054;52.100;5.116;2022-09-27T02:50:39;99520.59;;;11.11;90.84
51876;BME280;34054;52.100;5.116;2022-09-27T02:51:37;99514.13;;;11.07;90.70
51876;BME280;34054;52.100;5.116;2022-09-27T02:52:28;99509.94;;;10.95;90.96
51876;BME280;34054;52.100;5.116;2022-09-27T02:53:19;99519.44;;;10.93;91.12
51876;BME280;34054;52.100;5.116;2022-09-27T02:54:08;99516.25;;;10.91;91.16
51876;BME280;34054;52.100;5.116;2022-09-27T02:55:01;99520.41;;;10.83;91.39
51876;BME280;34054;52.100;5.116;2022-09-27T02:55:48;99519.59;;;10.82;91.38
51876;BME280;34054;52.100;5.116;2022-09-27T02:56:33;99522.47;;;10.91;91.56
51876;BME280;34054;52.100;5.116;2022-09-27T02:57:22;99511.81;;;10.95;91.86
51876;BME280;34054;52.100;5.116;2022-09-27T02:58:19;99516.81;;;11.07;91.80
51876;BME280;34054;52.100;5.116;2022-09-27T02:59:06;99524.41;;;11.10;91.79
51876;BME280;34054;52.100;5.116;2022-09-27T02:59:55;99515.72;;;11.08;92.06
51876;BME280;34054;52.100;5.116;2022-09-27T03:00:39;99525.06;;;11.21;92.17
51876;BME280;34054;52.100;5.116;2022-09-27T03:01:23;99520.06;;;11.28;91.85
51876;BME280;34054;52.100;5.116;2022-09-27T03:02:09;99522.22;;;11.31;91.95
51876;BME280;34054;52.100;5.116;2022-09-27T03:02:51;99521.13;;;11.32;91.93
51876;BME280;34054;52.100;5.116;2022-09-27T03:03:36;99507.09;;;11.25;92.08
51876;BME280;34054;52.100;5.116;2022-09-27T03:04:17;99528.16;;;11.33;92.26
51876;BME280;34054;52.100;5.116;2022-09-27T03:04:58;99526.63;;;11.46;92.04
51876;BME280;34054;52.100;5.116;2022-09-27T03:05:38;99526.16;;;11.39;91.58
51876;BME280;34054;52.100;5.116;2022-09-27T03:06:16;99522.13;;;11.36;91.67
51876;BME280;34054;52.100;5.116;2022-09-27T03:06:52;99518.97;;;11.29;91.28
51876;BME280;34054;52.100;5.116;2022-09-27T03:07:26;99524.09;;;11.11;90.70
51876;BME280;34054;52.100;5.116;2022-09-27T03:07:59;99529.97;;;10.99;90.37
51876;BME280;34054;52.100;5.116;2022-09-27T03:08:31;99526.34;;;10.85;90.59
51876;BME280;34054;52.100;5.116;2022-09-27T03:09:03;99531.16;;;10.69;90.78
51876;BME280;34054;52.100;5.116;2022-09-27T03:09:43;99528.28;;;10.60;91.60
51876;BME280;34054;52.100;5.116;2022-09-27T03:10:19;99538.06;;;10.61;92.11
51876;BME280;34054;52.100;5.116;2022-09-27T03:10:55;99531.16;;;10.69;92.45
51876;BME280;34054;52.100;5.116;2022-09-27T03:11:26;99535.16;;;10.77;92.64
51876;BME280;34054;52.100;5.116;2022-09-27T03:11:58;99537.50;;;10.83;92.56
51876;BME280;34054;52.100;5.116;2022-09-27T03:12:31;99526.06;;;10.87;92.69
51876;BME280;34054;52.100;5.116;2022-09-27T03:13:03;99527.38;;;10.89;92.80
51876;BME280;34054;52.100;5.116;2022-09-27T03:13:36;99541.06;;;11.03;92.93
51876;BME280;34054;52.100;5.116;2022-09-27T03:14:09;99541.00;;;11.08;93.04
51876;BME280;34054;52.100;5.116;2022-09-27T03:14:41;99541.72;;;11.14;93.05
51876;BME280;34054;52.100;5.116;2022-09-27T03:15:13;99535.41;;;11.19;93.03
51876;BME280;34054;52.100;5.116;2022-09-27T03:15:45;99537.25;;;11.23;93.12
51876;BME280;34054;52.100;5.116;2022-09-27T03:16:17;99536.38;;;11.28;93.10
51876;BME280;34054;52.100;5.116;2022-09-27T03:16:49;99543.38;;;11.34;92.96
51876;BME280;34054;52.100;5.116;2022-09-27T03:17:23;99540.06;;;11.37;92.79
51876;BME280;34054;52.100;5.116;2022-09-27T03:17:55;99544.19;;;11.35;92.16
51876;BME280;34054;52.100;5.116;2022-09-27T03:18:27;99542.34;;;11.30;91.95
51876;BME280;34054;52.100;5.116;2022-09-27T03:18:59;99543.38;;;11.34;91.87
51876;BME280;34054;52.100;5.116;2022-09-27T03:19:31;99547.78;;;11.30;91.92
51876;BME280;34054;52.100;5.116;2022-09-27T03:20:03;99529.78;;;11.34;91.87
51876;BME280;34054;52.100;5.116;2022-09-27T03:20:36;99536.59;;;11.31;91.25
51876;BME280;34054;52.100;5.116;2022-09-27T03:21:08;99532.69;;;11.19;91.25
51876;BME280;34054;52.100;5.116;2022-09-27T03:21:39;99536.22;;;11.00;90.64
51876;BME280;34054;52.100;5.116;2022-09-27T03:22:11;99537.00;;;10.81;90.70
51876;BME280;34054;52.100;5.116;2022-09-27T03:22:44;99528.03;;;10.81;91.32
51876;BME280;34054;52.100;5.116;2022-09-27T03:23:16;99527.28;;;10.75;91.76
51876;BME280;34054;52.100;5.116;2022-09-27T03:23:48;99530.97;;;10.84;92.14
51876;BME280;34054;52.100;5.116;2022-09-27T03:24:20;99522.81;;;10.84;92.07
51876;BME280;34054;52.100;5.116;2022-09-27T03:24:52;99521.94;;;10.89;91.93